Terminal Aerodrome Forecast
Issued by NWS Binghamton, NY

Home | Current Version | Previous Version | Text Only | Print | Product List | Glossary On
Versions: 1 2 3 4 5 6 7 8 9 10 11 12 13 14 15 16 17
000
FTUS41 KBGM 220900 AAA
TAFAVP
TAF AMD
KAVP 220903Z 2209/2306 00000KT P6SM OVC025
      TEMPO 2209/2213 OVC015
     FM221800 10005KT P6SM OVC025
     FM222300 10003KT 5SM -RASN OVC020
     FM230200 07002KT 5SM -RA OVC015=

USA.gov is the U.S. government's official web portal to all federal, state and local government web resources and services.